Flight Track Log - Related Links

Times and Time Zones

All times are in EST time to prevent confusion due to time zone crossing. See the N789EX flight status page for this flight to view local times or setup timezone preferences in your user account.

Time Position Orientation Groundspeed Altitude Reporting Facility
EST Latitude Longitude Course Direction KTS MPH feet Rate Location/Type
Mon 06:33:44 PM 47.5117 -122.2878 146° Southeast 175 201 1,200  Level Seattle Center
Mon 06:34:09 PM 47.4950 -122.2708 146° Southeast 174 200 2,100 2,333 Climbing Seattle Center
Mon 06:34:56 PM 47.4536 -122.2250 143° Southeast 258 297 4,000 2,656 Climbing Seattle Center
Mon 06:35:10 PM 47.4425 -122.2050 129° Southeast 248 285 4,800 4,030 Climbing Seattle Center
Mon 06:36:03 PM 47.4722 -122.1325 59° Northeast 279 321 8,500 4,230 Climbing Seattle Center
Mon 06:36:11 PM 47.4833 -122.1353 350° North 254 292 9,100 2,696 Climbing Seattle Center
Mon 06:37:12 PM 47.4964 -122.2381 281° West 287 330 11,600 3,000 Climbing Seattle Center
Mon 06:38:13 PM 47.4844 -122.3689 262° West 329 379 15,200 3,295 Climbing Seattle Center
Mon 06:39:14 PM 47.5078 -122.5014 285° West 334 384 18,300 3,393 Climbing Seattle Center
Mon 06:40:15 PM 47.5558 -122.6222 301° West 335 386 22,100 3,148 Climbing Seattle Center
Mon 06:41:16 PM 47.6025 -122.7433 300° West 335 386 24,700 2,508 Climbing Seattle Center
Mon 06:42:17 PM 47.6492 -122.8653 300° West 338 389 27,200 2,083 Climbing Seattle Center
Mon 06:43:17 PM 47.6972 -122.9903 300° West 347 399 28,900 1,736 Climbing Seattle Center
Mon 06:44:18 PM 47.7469 -123.1219 299° West 362 417 30,700 1,426 Climbing Seattle Center
Mon 06:45:19 PM 47.7981 -123.2578 299° West 376 433 31,800 1,180 Climbing Seattle Center
Mon 06:46:20 PM 47.8519 -123.4022 299° West 396 456 33,100 1,475 Climbing Seattle Center
Mon 06:47:21 PM 47.9042 -123.5483 298° West 400 460 34,800 1,475 Climbing Seattle Center
Mon 06:48:22 PM 47.9222 -123.7322 278° West 403 464 36,100 984 Climbing Seattle Center
Mon 06:49:23 PM 47.9400 -123.9022 279° West 413 475 36,800 787 Climbing Seattle Center
Mon 06:50:24 PM 47.9594 -124.0736 280° West 419 482 37,700 836 Climbing Seattle Center
Mon 06:51:25 PM 47.9436 -124.2497 262° West 441 507 38,500 694 Climbing Seattle Center
Mon 06:52:25 PM 47.8436 -124.3708 219° Southwest 481 554 39,100 645 Climbing Seattle Center
Mon 06:53:26 PM 47.6992 -124.3650 178° South 523 602 39,800 344 Climbing Seattle Center
Mon 06:54:27 PM 47.5547 -124.3489 176° South 521 600 39,800  Level Seattle Center
Mon 06:55:28 PM 47.4094 -124.3358 177° South 524 603 39,800 -49 Level Seattle Center
Mon 06:56:29 PM 47.2678 -124.3281 178° South 513 590 39,700 -148 Descending Seattle Center
Mon 06:57:30 PM 47.1292 -124.3108 175° South 504 580 39,500 148 Descending Seattle Center
Mon 06:58:31 PM 46.9922 -124.2961 176° South 496 571 40,000 344 Climbing Seattle Center
Mon 06:59:32 PM 46.8522 -124.2764 174° South 505 581 40,200 397 Climbing Seattle Center
Mon 07:00:32 PM 46.7103 -124.2606 176° South 512 589 40,800 -298 Climbing Seattle Center
Mon 07:01:33 PM 46.5681 -124.2458 176° South 514 592 39,600 -1,672 Descending Seattle Center
Mon 07:02:34 PM 46.4286 -124.2364 177° South 507 583 37,400 -246 Descending Seattle Center
Mon 07:03:35 PM 46.2900 -124.2197 175° South 496 571 39,100 1,279 Climbing Seattle Center
Mon 07:04:36 PM 46.1319 -124.2072 177° South 479 551 40,000 639 Climbing Seattle Center
Mon 07:05:37 PM 46.0000 -124.1981 177° South 482 555 40,400 344 Climbing Seattle Center
Mon 07:06:38 PM 45.8653 -124.1844 176° South 487 560 40,700 198 Climbing Seattle Center
Mon 07:07:38 PM 45.7294 -124.1678 175° South 490 564 40,800 -1,140 Climbing Seattle Center
Mon 07:08:39 PM 45.5897 -124.1556 176° South 503 579 38,400 -1,574 Descending Seattle Center
Mon 07:09:40 PM 45.4511 -124.1503 178° South 502 578 37,600 -492 Descending Seattle Center
Mon 07:10:41 PM 45.3214 -124.1803 189° South 501 577 37,400 -246 Descending Seattle Center
Mon 07:11:42 PM 45.3125 -124.3217 265° West 401 461 37,100 -197 Descending Seattle Center
Mon 07:12:43 PM 45.4236 -124.3678 344° North 433 498 37,000 -98 Descending Seattle Center
Mon 07:13:44 PM 45.5464 -124.2839 26° Northeast 500 575 36,900  Descending Seattle Center
Mon 07:14:44 PM 45.6639 -124.1717 34° Northeast 507 583 37,000  Climbing Seattle Center
Mon 07:15:45 PM 45.7811 -124.0603 34° Northeast 507 583 36,900  Descending Seattle Center
Mon 07:16:46 PM 45.8983 -123.9500 33° Northeast 505 581 37,000  Climbing Seattle Center
Mon 07:17:47 PM 46.0156 -123.8375 34° Northeast 506 582 36,900 -1,525 Descending Seattle Center
Mon 07:18:48 PM 46.1556 -123.7011 34° Northeast 507 583 33,900 -3,025 Descending Seattle Center
Mon 07:19:48 PM 46.2689 -123.5903 34° Northeast 497 572 30,800 -2,975 Descending Seattle Center
Mon 07:20:49 PM 46.3833 -123.4828 33° Northeast 494 568 27,900 -2,557 Descending Seattle Center
Mon 07:21:50 PM 46.4939 -123.3789 33° Northeast 483 556 25,600 -2,311 Descending Seattle Center
Mon 07:22:51 PM 46.6025 -123.2722 34° Northeast 474 545 23,200 -2,410 Descending Seattle Center
Mon 07:23:52 PM 46.7069 -123.1703 34° Northeast 460 529 20,700 -2,430 Descending Seattle Center
Mon 07:24:52 PM 46.8072 -123.0661 35° Northeast 447 514 18,300 -2,516 Descending Seattle Center
Mon 07:24:54 PM 46.8175 -123.0569 31° Northeast 437 503 18,100 -938 Descending Seattle Center
Mon 07:25:24 PM 46.8692 -123.0069 33° Northeast 424 488 17,800 -712 Descending Seattle Center
Mon 07:25:53 PM 46.9100 -122.9622 37° Northeast 411 473 17,400 -590 Descending Seattle Center
Mon 07:26:25 PM 46.9539 -122.9197 33° Northeast 363 418 17,200 -787 Descending Seattle Center
Mon 07:26:54 PM 46.9883 -122.8789 39° Northeast 347 399 16,600 -1,180 Descending Seattle Center
Mon 07:27:26 PM 47.0272 -122.8319 39° Northeast 326 375 16,000 -1,377 Descending Seattle Center
Mon 07:27:55 PM 47.0592 -122.7897 42° Northeast 335 386 15,200 -1,377 Descending Seattle Center
Mon 07:28:27 PM 47.0967 -122.7461 38° Northeast 327 376 14,600 -1,279 Descending Seattle Center
Mon 07:28:56 PM 47.1253 -122.7058 44° Northeast 311 358 13,900 -1,200 Descending Seattle Center
Mon 07:29:27 PM 47.1561 -122.6653 42° Northeast 287 330 13,400 -2,000 Descending Seattle Center
Mon 07:29:56 PM 47.1925 -122.6342 30° Northeast 282 325 11,900 -2,361 Descending Seattle Center
Mon 07:30:28 PM 47.2269 -122.6203 15° North 272 313 11,000 -2,656 Descending Seattle Center
Mon 07:30:57 PM 47.2664 -122.6156 North 268 308 9,200 -3,148 Descending Seattle Center
Mon 07:31:29 PM 47.3053 -122.6136 North 260 299 7,800 -2,459 Descending Seattle Center
Mon 07:31:58 PM 47.3392 -122.6122 North 264 304 6,700 -1,574 Descending Seattle Center
Mon 07:32:30 PM 47.3783 -122.6131 359° North 261 300 6,200 -1,082 Descending Seattle Center
Mon 07:32:59 PM 47.4114 -122.6119 North 261 300 5,600 -1,279 Descending Seattle Center
Mon 07:33:31 PM 47.4481 -122.6078 North 253 291 4,900 -1,400 Descending Seattle Center
Mon 07:33:59 PM 47.4814 -122.6031 North 253 291 4,200 -889 Descending Seattle Center
Mon 07:34:25 PM 47.5150 -122.6008 North 253 291 4,100 -197 Descending Seattle Center
Mon 07:35:00 PM 47.5528 -122.5975 North 255 293 4,000 -393 Descending Seattle Center
Mon 07:35:26 PM 47.5867 -122.5944 North 257 296 3,700 -787 Descending Seattle Center
Mon 07:36:01 PM 47.6219 -122.5892 North 251 289 3,200 -689 Descending Seattle Center
Mon 07:36:27 PM 47.6497 -122.5797 13° North 236 272 3,000 -590 Descending Seattle Center
Mon 07:37:02 PM 47.6692 -122.5436 51° Northeast 219 252 2,600 -575 Descending Seattle Center
Mon 07:37:40 PM 47.6919 -122.5006 52° Northeast 180 207 2,300 -400 Descending Seattle Center
Mon 07:38:02 PM 47.6928 -122.4775 87° East 198 228 2,200  Descending Seattle Center
Mon 07:38:41 PM 47.6800 -122.4347 114° Southeast 167 192 2,300  Climbing Seattle Center
Mon 07:39:03 PM 47.6631 -122.4164 144° Southeast 181 208 2,200  Descending Seattle Center
Mon 07:39:42 PM 47.6389 -122.3950 149° Southeast 169 194 2,300 -197 Climbing Seattle Center
Mon 07:40:04 PM 47.6242 -122.3828 151° Southeast 162 186 2,000 -689 Descending Seattle Center
Mon 07:40:43 PM 47.6025 -122.3658 152° Southeast 150 173 1,600 -885 Descending Seattle Center
Mon 07:41:05 PM 47.5883 -122.3522 147° Southeast 151 174 1,100 -885 Descending Seattle Center
Mon 07:41:44 PM 47.5683 -122.3353 150° Southeast 145 167 700 -787 Descending Seattle Center
Mon 07:42:06 PM 47.5528 -122.3217 149° Southeast 148 170 300 -600 Descending Seattle Center
Mon 07:42:44 PM 47.5347 -122.3081 153° Southeast 201 231 100 36,700 Descending Seattle Center
Mon 07:43:06 PM 47.5203 -122.2942 147° Southeast 146 168 37,000 100,636 Climbing Seattle Center

Login

Don't have an account? Register now (free) for customized features, flight alerts, and more!